Time;durP1;ratioP1;P1;durP2;ratioP2;P2;SDS_P1;SDS_P2;PMS_P1;PMS_P2;Temp;Humidity;BMP_temperature;BMP_pressure;BME280_temperature;BME280_humidity;BME280_pressure;Samples;Min_cycle;Max_cycle;Signal;HPM_P1;HPM_P2
2021/03/29 16:33:40;;;;;;;10.88;3.70;;;24.60;46.40;;;;;;5130365;27;20381;-48
2021/03/29 16:36:06;;;;;;;10.30;3.00;;;23.10;47.00;;;;;;5153232;27;20047;-57
2021/03/29 16:38:32;;;;;;;16.33;3.75;;;22.90;49.30;;;;;;5107807;28;20061;-56
2021/03/29 16:40:58;;;;;;;11.63;3.58;;;22.70;48.90;;;;;;5116727;27;20400;-51
2021/03/29 16:43:23;;;;;;;8.20;3.10;;;22.60;48.90;;;;;;5121840;28;20042;-51
2021/03/29 16:45:49;;;;;;;15.18;3.85;;;22.40;49.00;;;;;;5156298;27;20035;-56
2021/03/29 16:48:15;;;;;;;14.05;3.33;;;22.40;49.10;;;;;;5124523;28;20046;-54
2021/03/29 16:50:41;;;;;;;11.40;3.65;;;22.30;49.20;;;;;;5121197;27;20047;-55
2021/03/29 16:53:07;;;;;;;11.63;3.20;;;22.20;49.40;;;;;;5122100;28;20043;-56
2021/03/29 16:55:33;;;;;;;13.98;3.63;;;22.10;49.40;;;;;;5156384;27;20046;-48
2021/03/29 16:57:59;;;;;;;10.07;2.70;;;22.10;49.40;;;;;;5106829;28;20043;-46
2021/03/29 17:00:25;;;;;;;9.27;2.85;;;22.00;49.50;;;;;;5105161;28;20064;-47
2021/03/29 17:02:52;;;;;;;11.50;3.30;;;21.90;49.50;;;;;;5124143;27;20047;-51
2021/03/29 17:05:18;;;;;;;10.65;3.38;;;21.90;49.70;;;;;;5124478;28;20051;-50
2021/03/29 17:07:43;;;;;;;7.90;3.05;;;21.80;49.80;;;;;;5120697;28;20058;-51
2021/03/29 17:10:10;;;;;;;10.07;3.55;;;21.80;50.00;;;;;;5123831;28;20036;-56
2021/03/29 17:12:36;;;;;;;13.35;4.32;;;21.70;50.10;;;;;;5125345;28;20070;-55
2021/03/29 17:15:03;;;;;;;17.33;6.40;;;21.70;50.20;;;;;;5122901;27;20077;-54
2021/03/29 17:17:28;;;;;;;17.98;7.35;;;21.60;50.20;;;;;;5124668;27;20059;-58
2021/03/29 17:19:54;;;;;;;16.90;7.00;;;21.60;50.30;;;;;;5125942;28;20039;-48
2021/03/29 17:22:20;;;;;;;16.27;5.32;;;21.50;50.30;;;;;;5127189;28;20104;-47
2021/03/29 17:24:46;;;;;;;12.75;5.40;;;21.50;49.90;;;;;;5123617;28;20047;-51
2021/03/29 17:28:36;;;;;;;12.30;5.72;;;21.30;47.10;;;;;;5122059;27;912019;-78
2021/03/29 17:31:04;;;;;;;12.18;5.63;;;20.70;48.50;;;;;;5130175;27;20119;-82
2021/03/29 17:33:29;;;;;;;9.00;5.78;;;20.20;48.50;;;;;;5147677;27;20475;-79
2021/03/29 17:35:55;;;;;;;11.50;5.90;;;19.70;48.90;;;;;;5111193;27;20045;-79
2021/03/29 17:38:21;;;;;;;12.77;6.63;;;19.30;49.40;;;;;;5124863;27;20053;-79
2021/03/29 17:40:47;;;;;;;16.38;6.05;;;18.90;50.00;;;;;;5120604;27;20038;-84
2021/03/29 17:43:12;;;;;;;9.93;5.25;;;18.60;50.40;;;;;;5107640;27;20050;-78
2021/03/29 17:45:38;;;;;;;11.57;5.95;;;18.40;51.00;;;;;;5140482;27;20095;-79
2021/03/29 17:48:04;;;;;;;9.98;5.30;;;18.20;51.40;;;;;;5123218;28;20035;-79
2021/03/29 17:50:30;;;;;;;12.60;6.57;;;18.00;51.70;;;;;;5112532;27;20050;-79
2021/03/29 17:52:56;;;;;;;10.80;5.82;;;17.80;52.00;;;;;;5126841;27;20076;-82
2021/03/29 17:55:22;;;;;;;11.85;6.90;;;17.60;52.20;;;;;;5146618;27;20057;-79
2021/03/29 17:57:47;;;;;;;13.18;7.43;;;17.50;52.50;;;;;;5105734;27;20085;-84
2021/03/29 18:00:15;;;;;;;11.75;6.15;;;17.40;52.90;;;;;;5126522;27;20106;-79
2021/03/29 18:02:41;;;;;;;12.80;6.35;;;17.20;53.10;;;;;;5129116;27;20071;-82
2021/03/29 18:05:07;;;;;;;13.02;6.38;;;17.10;53.50;;;;;;5127393;27;20382;-81
2021/03/29 18:07:33;;;;;;;15.07;6.85;;;17.00;53.80;;;;;;5126811;27;20109;-82
2021/03/29 18:09:58;;;;;;;12.50;6.35;;;16.90;54.10;;;;;;5124982;27;20031;-84
2021/03/29 18:12:25;;;;;;;8.88;5.50;;;16.70;54.20;;;;;;5138663;27;20038;-78
2021/03/29 18:14:51;;;;;;;10.52;5.90;;;16.70;54.50;;;;;;5106381;27;20046;-81
2021/03/29 18:17:16;;;;;;;12.27;6.38;;;16.60;54.70;;;;;;5125134;27;20027;-81
2021/03/29 18:19:42;;;;;;;12.43;6.28;;;16.50;54.70;;;;;;5090220;27;20110;-77
2021/03/29 18:22:08;;;;;;;12.30;6.00;;;16.40;55.00;;;;;;5145186;27;20395;-80
2021/03/29 18:24:34;;;;;;;12.73;5.70;;;16.30;55.10;;;;;;5109936;27;20168;-80
2021/03/29 18:27:00;;;;;;;16.58;6.82;;;16.30;55.10;;;;;;5109711;27;20059;-79
2021/03/29 18:29:25;;;;;;;10.07;6.20;;;16.20;55.20;;;;;;5143858;27;20156;-79
2021/03/29 18:31:52;;;;;;;11.75;6.35;;;16.10;55.20;;;;;;5092466;27;20063;-79
2021/03/29 18:34:18;;;;;;;11.15;5.85;;;16.00;55.30;;;;;;5123929;27;20437;-81
2021/03/29 18:36:44;;;;;;;11.77;6.82;;;16.00;55.60;;;;;;5127157;27;20047;-81
2021/03/29 18:39:10;;;;;;;13.00;5.93;;;15.90;55.60;;;;;;5097695;28;20039;-82
2021/03/29 18:41:36;;;;;;;10.43;5.70;;;15.90;55.80;;;;;;5086522;27;20042;-86
2021/03/29 18:44:02;;;;;;;14.85;6.53;;;15.80;55.70;;;;;;5110897;27;20114;-84
2021/03/29 18:46:28;;;;;;;13.43;6.10;;;15.70;55.80;;;;;;5094186;27;20125;-83
2021/03/29 18:48:54;;;;;;;12.60;5.90;;;15.70;55.90;;;;;;5097453;27;20571;-83
2021/03/29 18:51:20;;;;;;;13.15;6.50;;;15.60;55.90;;;;;;5113771;27;20088;-81
2021/03/29 18:53:46;;;;;;;13.23;6.35;;;15.50;56.00;;;;;;5128729;27;20039;-86
2021/03/29 18:58:37;;;;;;;12.57;6.43;;;15.40;56.30;;;;;;5092965;27;20486;-82
2021/03/29 19:01:04;;;;;;;9.27;5.68;;;15.40;56.50;;;;;;5081923;27;20065;-87
2021/03/29 19:03:30;;;;;;;11.18;6.20;;;15.30;56.70;;;;;;5095961;27;20163;-86
2021/03/29 19:05:57;;;;;;;12.52;6.05;;;15.20;57.00;;;;;;5082770;27;20047;-83
2021/03/29 19:08:29;;;;;;;12.35;6.53;;;15.10;57.10;;;;;;5109493;27;20036;-83
2021/03/29 19:10:55;;;;;;;16.80;6.87;;;15.10;57.30;;;;;;5090540;27;20032;-84
2021/03/29 19:13:22;;;;;;;11.50;6.75;;;15.00;57.30;;;;;;5092297;27;20312;-83
2021/03/29 19:15:48;;;;;;;13.65;6.93;;;14.90;57.30;;;;;;5095514;27;20035;-84
2021/03/29 19:18:18;;;;;;;11.10;6.85;;;14.90;57.50;;;;;;5109991;27;20379;-83
2021/03/29 19:20:44;;;;;;;13.93;7.32;;;14.80;57.60;;;;;;5111279;27;20061;-84
2021/03/29 19:23:11;;;;;;;14.45;7.97;;;14.80;57.90;;;;;;5124623;27;20042;-83
2021/03/29 19:25:37;;;;;;;11.35;7.00;;;14.70;58.10;;;;;;5095471;27;20058;-82
2021/03/29 19:28:05;;;;;;;12.20;7.95;;;14.60;58.20;;;;;;5123705;27;20071;-78
2021/03/29 19:30:33;;;;;;;13.65;8.10;;;14.60;58.40;;;;;;5130129;27;20514;-83
2021/03/29 19:33:01;;;;;;;15.82;7.97;;;14.50;58.60;;;;;;5114953;27;20059;-88
2021/03/29 19:35:27;;;;;;;15.52;7.95;;;14.50;58.80;;;;;;5090448;27;20051;-81
2021/03/29 19:37:53;;;;;;;13.38;7.15;;;14.40;58.90;;;;;;5093355;27;20066;-81
2021/03/29 19:40:18;;;;;;;13.32;6.70;;;14.40;59.00;;;;;;5114753;27;20050;-81
2021/03/29 19:42:44;;;;;;;13.40;7.22;;;14.30;59.00;;;;;;5089509;27;20479;-81
2021/03/29 19:45:10;;;;;;;11.65;5.47;;;14.20;59.10;;;;;;5096407;27;20058;-83
2021/03/29 19:47:36;;;;;;;12.25;6.43;;;14.20;60.00;;;;;;5088988;27;20359;-79
2021/03/29 19:50:03;;;;;;;13.35;7.25;;;14.40;61.20;;;;;;5109076;28;20040;-80
2021/03/29 19:52:29;;;;;;;13.68;7.65;;;14.40;59.70;;;;;;5126431;27;20046;-79
2021/03/29 19:54:54;;;;;;;13.10;7.72;;;14.40;59.30;;;;;;5095907;27;20382;-79
2021/03/29 19:57:21;;;;;;;15.52;7.63;;;14.30;59.00;;;;;;5089249;27;20180;-80
2021/03/29 19:59:50;;;;;;;13.90;6.68;;;14.30;58.80;;;;;;5090280;27;20531;-81
2021/03/29 20:02:18;;;;;;;16.38;6.88;;;14.30;58.70;;;;;;5080074;27;20102;-80
2021/03/29 20:04:46;;;;;;;9.25;7.18;;;14.20;58.60;;;;;;5106851;27;20035;-80
2021/03/29 20:09:44;;;;;;;13.95;7.80;;;14.10;58.40;;;;;;5125391;27;20043;-80
2021/03/29 20:12:10;;;;;;;12.25;7.40;;;14.10;58.40;;;;;;5111195;27;20054;-79
2021/03/29 20:14:36;;;;;;;13.95;7.70;;;14.00;58.30;;;;;;5128607;27;20035;-80
2021/03/29 20:17:03;;;;;;;14.57;7.93;;;14.00;58.20;;;;;;5086879;27;20423;-79
2021/03/29 20:19:29;;;;;;;11.88;6.93;;;14.00;58.30;;;;;;5105410;27;20048;-79
2021/03/29 20:21:55;;;;;;;13.65;7.13;;;13.90;58.20;;;;;;5100858;27;20043;-79
2021/03/29 20:24:21;;;;;;;14.38;7.40;;;13.90;58.30;;;;;;5103341;27;20039;-80
2021/03/29 20:26:47;;;;;;;10.07;6.40;;;13.80;58.40;;;;;;5087477;27;20150;-80
2021/03/29 20:29:13;;;;;;;13.75;7.47;;;13.70;58.40;;;;;;5091642;27;20039;-79
2021/03/29 20:31:38;;;;;;;11.55;6.32;;;13.70;58.60;;;;;;5105779;27;20043;-78
2021/03/29 20:34:06;;;;;;;12.75;6.78;;;13.60;58.60;;;;;;5111502;27;20043;-75
2021/03/29 20:36:33;;;;;;;12.50;6.70;;;13.60;59.50;;;;;;5080574;27;20043;-78
2021/03/29 20:38:58;;;;;;;13.07;6.75;;;13.50;58.80;;;;;;5115301;27;20069;-76
2021/03/29 20:41:24;;;;;;;13.52;6.10;;;13.50;59.00;;;;;;5093483;27;20035;-77
2021/03/29 20:43:51;;;;;;;11.20;6.40;;;13.40;58.80;;;;;;5115069;27;20407;-77
2021/03/29 20:46:16;;;;;;;9.98;6.07;;;13.50;59.10;;;;;;5096800;27;20471;-75
2021/03/29 20:48:44;;;;;;;13.95;6.53;;;13.40;58.90;;;;;;5093828;27;20096;-80
2021/03/29 20:51:13;;;;;;;10.63;6.70;;;13.40;59.00;;;;;;5130375;27;20099;-76
2021/03/29 20:53:39;;;;;;;10.45;6.05;;;13.30;59.10;;;;;;5095239;27;20122;-77
2021/03/29 20:56:05;;;;;;;12.90;5.97;;;13.30;59.10;;;;;;5095299;27;20062;-77
2021/03/29 20:58:31;;;;;;;11.10;5.85;;;13.20;59.10;;;;;;5130381;27;20039;-77
2021/03/29 21:00:57;;;;;;;10.52;6.55;;;13.20;59.30;;;;;;5094782;27;20200;-74
2021/03/29 21:03:23;;;;;;;10.52;5.75;;;13.10;59.40;;;;;;5114177;27;20039;-74
2021/03/29 21:05:49;;;;;;;11.07;6.55;;;13.10;59.50;;;;;;5111068;27;20527;-74
2021/03/29 21:08:15;;;;;;;11.95;6.05;;;13.00;59.60;;;;;;5077516;27;20138;-74
2021/03/29 21:10:41;;;;;;;13.77;7.05;;;13.00;59.70;;;;;;5123768;27;20043;-74
2021/03/29 21:13:07;;;;;;;15.55;7.38;;;13.00;59.80;;;;;;5103575;27;20031;-74
2021/03/29 21:15:33;;;;;;;13.95;7.03;;;12.90;59.80;;;;;;5125315;27;20110;-73
2021/03/29 21:17:59;;;;;;;12.93;6.93;;;12.90;59.80;;;;;;5129250;27;20129;-74
2021/03/29 21:20:25;;;;;;;11.25;7.35;;;12.90;59.80;;;;;;5110964;27;20062;-74
2021/03/29 21:22:53;;;;;;;10.85;7.78;;;12.80;59.80;;;;;;5126897;27;20162;-74
2021/03/29 21:25:18;;;;;;;13.45;6.90;;;12.80;59.90;;;;;;5129672;28;20050;-74
2021/03/29 21:27:44;;;;;;;14.85;7.80;;;12.80;60.00;;;;;;5125542;28;20047;-75
2021/03/29 21:30:10;;;;;;;12.85;7.18;;;12.70;60.00;;;;;;5072472;28;20049;-74
2021/03/29 21:32:37;;;;;;;12.15;7.68;;;12.70;60.20;;;;;;5130703;28;20047;-74
2021/03/29 21:35:05;;;;;;;12.98;7.15;;;12.70;60.40;;;;;;5129715;28;20058;-75
2021/03/29 21:37:34;;;;;;;16.00;7.47;;;12.60;60.40;;;;;;5082005;28;20074;-74
2021/03/29 21:39:59;;;;;;;13.70;8.05;;;12.60;60.40;;;;;;5127500;28;20103;-74
2021/03/29 21:42:27;;;;;;;12.57;7.30;;;12.50;60.50;;;;;;5113037;28;20455;-75
2021/03/29 21:44:52;;;;;;;10.95;7.70;;;12.50;60.60;;;;;;5084475;28;20047;-75
2021/03/29 21:47:18;;;;;;;11.77;8.23;;;12.50;60.60;;;;;;5113435;28;20043;-75
2021/03/29 21:49:44;;;;;;;10.48;7.30;;;12.40;60.60;;;;;;5132929;28;20456;-77
2021/03/29 21:52:10;;;;;;;10.38;7.38;;;12.40;60.70;;;;;;5099028;28;20043;-76
2021/03/29 21:54:36;;;;;;;15.80;8.60;;;12.30;60.70;;;;;;5112453;28;20050;-75
2021/03/29 21:57:02;;;;;;;12.27;7.50;;;12.30;60.80;;;;;;5092806;28;20043;-74
2021/03/29 21:59:28;;;;;;;14.98;8.05;;;12.30;61.00;;;;;;5112873;28;20053;-72
2021/03/29 22:01:54;;;;;;;12.18;6.90;;;12.20;61.00;;;;;;5130197;28;20039;-73
2021/03/29 22:04:19;;;;;;;13.45;7.50;;;12.20;61.10;;;;;;5132780;28;20107;-75
2021/03/29 22:06:45;;;;;;;13.77;8.57;;;12.20;61.20;;;;;;5114754;28;20138;-75
2021/03/29 22:09:11;;;;;;;18.55;8.48;;;12.10;61.20;;;;;;5095589;28;20067;-74
2021/03/29 22:11:36;;;;;;;11.57;7.25;;;12.10;61.30;;;;;;5115112;28;20452;-76
2021/03/29 22:14:02;;;;;;;15.45;7.68;;;12.10;61.30;;;;;;5134153;27;20051;-74
2021/03/29 22:16:28;;;;;;;16.40;8.40;;;12.00;61.40;;;;;;5136520;27;20051;-73
2021/03/29 22:18:54;;;;;;;12.15;7.15;;;12.00;61.50;;;;;;5134343;27;20047;-75
2021/03/29 22:21:20;;;;;;;14.35;7.72;;;12.00;61.70;;;;;;5134609;27;20035;-73
2021/03/29 22:23:46;;;;;;;10.13;6.65;;;11.90;61.80;;;;;;5115263;27;20035;-76
2021/03/29 22:26:12;;;;;;;16.92;7.85;;;11.90;62.00;;;;;;5136076;27;20047;-76
2021/03/29 22:28:45;;;;;;;11.73;7.00;;;11.90;62.00;;;;;;5117705;27;20411;-75
2021/03/29 22:33:47;;;;;;;15.17;7.67;;;11.80;62.10;;;;;;5130607;27;20039;-74
2021/03/29 22:41:37;;;;;;;14.10;7.45;;;11.80;62.40;;;;;;5129823;27;20035;-74
2021/03/29 22:44:02;;;;;;;10.07;7.43;;;11.70;62.50;;;;;;5119256;27;20043;-73
2021/03/29 22:46:28;;;;;;;12.02;7.35;;;11.70;62.70;;;;;;5102301;27;20090;-73
2021/03/29 22:48:54;;;;;;;13.60;7.45;;;11.60;62.50;;;;;;5136005;27;20050;-74
2021/03/29 22:51:20;;;;;;;9.75;7.38;;;11.60;62.60;;;;;;5137728;27;20043;-73
2021/03/29 22:53:46;;;;;;;12.02;6.70;;;11.60;62.70;;;;;;5134313;27;20059;-74
2021/03/29 22:56:12;;;;;;;11.10;6.65;;;11.60;62.80;;;;;;5101189;27;20581;-73
2021/03/29 22:58:38;;;;;;;14.07;7.15;;;11.50;62.70;;;;;;5118079;27;20065;-75
2021/03/29 23:01:05;;;;;;;11.30;7.05;;;11.50;62.80;;;;;;5136731;27;20058;-74
2021/03/29 23:03:30;;;;;;;12.40;7.82;;;11.50;62.80;;;;;;5137394;27;20043;-72
2021/03/29 23:05:56;;;;;;;13.07;7.63;;;11.40;62.90;;;;;;5134623;27;20046;-74
2021/03/29 23:08:22;;;;;;;12.43;7.78;;;11.40;63.00;;;;;;5119070;27;20096;-73
2021/03/29 23:10:48;;;;;;;13.90;7.22;;;11.40;63.10;;;;;;5136419;27;20047;-75
2021/03/29 23:13:13;;;;;;;11.07;7.70;;;11.30;63.10;;;;;;5135374;27;20103;-74
2021/03/29 23:15:39;;;;;;;12.85;7.70;;;11.40;63.20;;;;;;5135659;27;20047;-73
2021/03/29 23:18:05;;;;;;;11.63;7.50;;;11.30;63.20;;;;;;5136372;27;20039;-75
2021/03/29 23:20:31;;;;;;;13.68;7.80;;;11.30;63.30;;;;;;5136100;27;20510;-73
2021/03/29 23:22:57;;;;;;;13.52;7.70;;;11.30;63.30;;;;;;5115214;27;20042;-75
2021/03/29 23:25:23;;;;;;;13.90;7.32;;;11.30;63.40;;;;;;5118116;27;20043;-74
2021/03/29 23:27:48;;;;;;;11.15;8.00;;;11.20;63.40;;;;;;5109301;27;20419;-74
2021/03/29 23:30:15;;;;;;;12.85;8.15;;;11.20;63.60;;;;;;5135464;27;20043;-74
2021/03/29 23:32:41;;;;;;;15.13;8.23;;;11.10;63.60;;;;;;5115530;27;20086;-72
2021/03/29 23:35:07;;;;;;;13.60;7.70;;;11.10;63.60;;;;;;5116750;27;20548;-73
2021/03/29 23:37:33;;;;;;;10.65;8.05;;;11.10;63.70;;;;;;5117175;27;20039;-73
2021/03/29 23:39:59;;;;;;;12.85;8.63;;;11.10;63.80;;;;;;5116503;27;20501;-75
2021/03/29 23:42:24;;;;;;;12.05;7.80;;;11.10;63.90;;;;;;5118404;27;20043;-75
2021/03/29 23:44:50;;;;;;;12.20;8.50;;;11.00;64.00;;;;;;5115739;27;20054;-74
2021/03/29 23:47:16;;;;;;;10.95;7.80;;;11.00;64.00;;;;;;5116929;27;20038;-74
2021/03/29 23:49:42;;;;;;;12.65;8.45;;;11.00;64.00;;;;;;5101050;27;20403;-74
2021/03/29 23:52:07;;;;;;;10.77;7.80;;;11.00;64.00;;;;;;5135429;27;20047;-74
2021/03/29 23:54:33;;;;;;;13.40;9.55;;;11.00;64.00;;;;;;5117501;27;20113;-74
2021/03/29 23:56:59;;;;;;;12.88;9.18;;;11.00;64.10;;;;;;5135913;27;20172;-75
2021/03/29 23:59:24;;;;;;;14.35;8.57;;;11.00;64.00;;;;;;5117316;27;20036;-74
